Rome, OR

3:28 PM MDT on July 30, 2014 (GMT -0600)
Mountain Home Air Force Base (KMUO) Elev 2995 ft | 43.04 °N, 115.87 °W | Change Station

Current weather conditions updated 30 minutes ago

Scattered Clouds
Scattered Clouds
91 °F
Feels Like 91 °F
N
6
Wind Variable Wind from Variable

Today is forecast to be Cooler than yesterday.

Today
High -- | Low -- °F
--% Chance of Precip.
Yesterday
High -- | Low -- °F
Precip. -- in
6:39 AM 9:12 PM
Waxing Crescent, 13% visible
Pressure 30.02 in
Visibility 10.0 miles
Clouds Few 9000 ft
Few 16000 ft
Scattered Clouds 20000 ft
Dew Point 47 °F
Humidity 22%
Rainfall 0.00 in
Snow Depth Not available.
UV 8 out of 12
Pollen 4.50 out of 12
Air Quality Not available.
Flu Activity Not available.
METAR KMUO 302058Z VRB05KT 10SM FEW090 FEW160 SCT200 33/08 A3010 RMK AO2A SLP164 T03280081 57016

More Conditions Fewer Conditions

Pressure 30.02 in
Visibility 10.0 miles
Clouds Few 9000 ft
Few 16000 ft
Scattered Clouds 20000 ft
Dew Point 47 °F
Humidity 22%
Rainfall 0.00 in
Snow Depth Not available.
UV 8 out of 12
Pollen 4.50 out of 12
Air Quality Not available.
Flu Activity Not available.
METAR KMUO 302058Z VRB05KT 10SM FEW090 FEW160 SCT200 33/08 A3010 RMK AO2A SLP164 T03280081 57016

More Conditions Fewer Conditions

10-Day Weather Forecast

Almanac

Astronomy

Jul. 30, 2014 Rise Set
Actual Time 6:39 AM MDT 9:12 PM MDT
Civil Twilight 6:07 AM MDT 9:44 PM MDT
Nautical Twilight 5:26 AM MDT 10:24 PM MDT
Astronomical Twilight 4:41 AM MDT 11:09 PM MDT
Moon 10:21 AM MDT 10:50 PM MDT
Length of Visible Light 15h 37m
Length of Day
14h 32m
Tomorrow will be 2m 9s shorter.
Waxing Crescent, 13% of the Moon is Illuminated
Today
Waxing Crescent
Aug 3
First Quarter
Aug 10
Full
Aug 17
Last Quarter
Aug 25
New

Today's Extremes

State Highs State Lows

Community

WunderPhotos

Upload Photos

1,739,207 photos uploaded!

WunderBlogs® & News

By Dr. Jeff Masters
Director of Meteorology, Weather Underground
By Kari Strenfel
Meteorologist, Weather Underground
By Christopher C. Burt
Weather Historian, Weather Underground
July 30, 2014
July 30, 2014
July 30, 2014

Nearby

Snow Depth

Station Depth Elevation
Fish Creek 0 in 7900 ft
Blue Mountain Spring 0 in 5900 ft
Bourne 1 in 5800 ft
Aneroid Lake #2 0 in 7300 ft
Mt. Howard 0 in 7910 ft

Earthquake Activity

City Distance Mag. Time & Date
No recent earthquake activity has been reported nearby.
Minimum magnitude displayed is 2.5.

Coastal Water Temperatures

Place Temperature
No Stations Reporting

Nearby Weather Stations

Station Location Temp. Heat Index Dew Point Humidity Wind Precip. Elev Updated Type
RAWS GRASSY MOUNTAIN OR, Jordan Valley, OR 89 °F 85 °F 41 °F 19% ESE  at  8 mph 0.00 in / hr 4560 ft 2:24 PM MDT MADIS
HADS DANNER OR, Arock, OR 90 °F 87 °F - - North  at  - 0.00 in / hr 4225 ft 2:45 PM MDT MADIS

Show More Stations Show Fewer Stations